createdAt,value
2022-11-07T00:00:36.582Z,10.34
2022-11-07T00:03:03.505Z,10.34
2022-11-07T00:05:30.369Z,10.31
2022-11-07T00:07:58.674Z,10.24
2022-11-07T00:10:25.589Z,10.23
2022-11-07T00:12:52.436Z,10.24
2022-11-07T00:15:19.198Z,10.24
2022-11-07T00:17:46.171Z,10.24
2022-11-07T00:20:12.984Z,10.30
2022-11-07T00:22:39.993Z,10.38
2022-11-07T00:25:08.932Z,10.38
2022-11-07T00:27:35.698Z,10.31
2022-11-07T00:30:02.679Z,10.28
2022-11-07T00:32:29.430Z,10.22
2022-11-07T00:34:56.338Z,10.17
2022-11-07T00:37:23.129Z,10.21
2022-11-07T00:39:49.907Z,10.23
2022-11-07T00:42:18.163Z,10.25
2022-11-07T00:44:45.051Z,10.22
2022-11-07T00:47:11.885Z,10.21
2022-11-07T00:49:38.682Z,10.26
2022-11-07T00:52:05.458Z,10.33
2022-11-07T00:54:32.273Z,10.37
2022-11-07T00:56:59.117Z,10.47
2022-11-07T00:59:27.516Z,10.55
2022-11-07T01:01:54.513Z,10.57
2022-11-07T01:04:39.887Z,10.52
2022-11-07T01:07:07.237Z,10.56
2022-11-07T01:09:34.025Z,10.56
2022-11-07T01:12:00.933Z,10.52
2022-11-07T01:14:29.171Z,10.51
2022-11-07T01:16:56.121Z,10.47
2022-11-07T01:19:22.926Z,10.40
2022-11-07T01:21:49.765Z,10.39
2022-11-07T01:24:17.684Z,10.32
2022-11-07T01:26:48.723Z,10.28
2022-11-07T01:29:15.876Z,10.23
2022-11-07T01:31:44.232Z,10.20
2022-11-07T01:34:11.017Z,10.21
2022-11-07T01:36:37.926Z,10.24
2022-11-07T01:39:05.623Z,10.38
2022-11-07T01:41:34.713Z,10.53
2022-11-07T01:44:04.382Z,10.57
2022-11-07T01:46:33.039Z,10.55
2022-11-07T01:49:07.360Z,10.54
2022-11-07T01:51:39.373Z,10.54
2022-11-07T01:54:07.084Z,10.50
2022-11-07T01:56:37.616Z,10.47
2022-11-07T01:59:05.525Z,10.41
2022-11-07T02:01:32.749Z,10.40
2022-11-07T02:04:02.241Z,10.38
2022-11-07T02:06:37.120Z,10.34
2022-11-07T02:09:04.835Z,10.31
2022-11-07T02:11:32.283Z,10.39
2022-11-07T02:13:59.097Z,10.40
2022-11-07T02:16:26.063Z,10.51
2022-11-07T02:18:53.191Z,10.51
2022-11-07T02:21:32.954Z,10.45
2022-11-07T02:24:13.792Z,10.41
2022-11-07T02:26:41.687Z,10.36
2022-11-07T02:29:10.405Z,10.36
2022-11-07T02:31:37.206Z,10.47
2022-11-07T02:34:04.138Z,10.58
2022-11-07T02:36:31.015Z,10.58
2022-11-07T02:38:59.476Z,10.62
2022-11-07T02:41:30.444Z,10.58
2022-11-07T02:44:00.951Z,10.47
2022-11-07T02:46:29.395Z,10.37
2022-11-07T02:48:58.994Z,10.32
2022-11-07T02:51:25.893Z,10.31
2022-11-07T02:53:53.303Z,10.30
2022-11-07T02:56:20.844Z,10.38
2022-11-07T02:58:49.191Z,10.38
2022-11-07T03:01:16.443Z,10.37
2022-11-07T03:03:46.268Z,10.38
2022-11-07T03:06:15.648Z,10.36
2022-11-07T03:08:43.334Z,10.32
2022-11-07T03:11:11.529Z,10.29
2022-11-07T03:13:38.799Z,10.24
2022-11-07T03:16:11.026Z,10.21
2022-11-07T03:18:38.277Z,10.31
2022-11-07T03:21:06.241Z,10.31
2022-11-07T03:23:34.598Z,10.33
2022-11-07T03:26:01.766Z,10.33
2022-11-07T03:28:28.677Z,10.36
2022-11-07T03:30:56.224Z,10.47
2022-11-07T03:33:24.498Z,10.56
2022-11-07T03:35:51.292Z,10.55
2022-11-07T03:38:18.060Z,10.61
2022-11-07T03:40:46.466Z,10.63
2022-11-07T03:43:13.491Z,10.63
2022-11-07T03:45:40.515Z,10.66
2022-11-07T03:48:07.351Z,10.56
2022-11-07T03:50:35.516Z,10.65
2022-11-07T03:53:02.523Z,10.66
2022-11-07T03:55:29.291Z,10.62
2022-11-07T03:57:56.033Z,10.53
2022-11-07T04:00:23.731Z,10.49
2022-11-07T04:02:50.674Z,10.51
2022-11-07T04:05:19.735Z,10.49
2022-11-07T04:07:48.010Z,10.44
2022-11-07T04:10:15.077Z,10.43
2022-11-07T04:13:00.626Z,10.39
2022-11-07T04:15:45.783Z,10.32
2022-11-07T04:18:12.689Z,10.30
2022-11-07T04:20:39.570Z,10.29
2022-11-07T04:23:07.712Z,10.28
2022-11-07T04:25:53.133Z,10.32
2022-11-07T04:28:20.164Z,10.30
2022-11-07T04:30:46.981Z,10.28
2022-11-07T04:33:14.296Z,10.28
2022-11-07T04:35:41.247Z,10.33
2022-11-07T04:38:09.645Z,10.39
2022-11-07T04:40:36.438Z,10.33
2022-11-07T04:43:09.128Z,10.23
2022-11-07T04:45:36.909Z,10.26
2022-11-07T04:48:04.117Z,10.32
2022-11-07T04:50:31.333Z,10.24
2022-11-07T04:52:58.163Z,10.23
2022-11-07T04:55:27.974Z,10.20
2022-11-07T04:57:54.740Z,10.17
2022-11-07T05:00:21.848Z,10.17
2022-11-07T05:02:50.046Z,10.22
2022-11-07T05:05:17.419Z,10.27
2022-11-07T05:07:44.746Z,10.30
2022-11-07T05:10:17.978Z,10.36
2022-11-07T05:12:46.267Z,10.42
2022-11-07T05:15:13.748Z,10.48
2022-11-07T05:17:40.873Z,10.49
2022-11-07T05:20:27.920Z,10.42
2022-11-07T05:23:13.752Z,10.39
2022-11-07T05:25:41.837Z,10.41
2022-11-07T05:28:10.767Z,10.39
2022-11-07T05:30:39.455Z,10.34
2022-11-07T05:33:06.312Z,10.33
2022-11-07T05:35:33.124Z,10.32
2022-11-07T05:37:59.896Z,10.29
2022-11-07T05:40:26.722Z,10.34
2022-11-07T05:42:58.498Z,10.33
2022-11-07T05:45:26.778Z,10.39
2022-11-07T05:47:57.410Z,10.37
2022-11-07T05:50:24.220Z,10.37
2022-11-07T05:52:51.132Z,10.42
2022-11-07T05:55:18.069Z,10.43
2022-11-07T05:57:44.779Z,10.47
2022-11-07T06:00:13.622Z,10.42
2022-11-07T06:02:41.968Z,10.39
2022-11-07T06:05:09.833Z,10.36
2022-11-07T06:07:37.749Z,10.35
2022-11-07T06:10:05.951Z,10.36
2022-11-07T06:12:32.691Z,10.37
2022-11-07T06:14:59.440Z,10.34
2022-11-07T06:17:26.264Z,10.34
2022-11-07T06:19:54.419Z,10.32
2022-11-07T06:22:21.244Z,10.29
2022-11-07T06:24:47.985Z,10.27
2022-11-07T06:27:14.746Z,10.28
2022-11-07T06:29:41.625Z,10.37
2022-11-07T06:32:08.438Z,10.40
2022-11-07T06:34:35.323Z,10.44
2022-11-07T06:37:03.700Z,10.41
2022-11-07T06:39:30.541Z,10.48
2022-11-07T06:41:57.336Z,10.53
2022-11-07T06:44:24.084Z,10.53
2022-11-07T06:46:50.910Z,10.55
2022-11-07T06:49:17.653Z,10.57
2022-11-07T06:51:47.889Z,10.59
2022-11-07T06:54:16.579Z,10.56
2022-11-07T06:56:43.386Z,10.52
2022-11-07T06:59:10.283Z,10.50
2022-11-07T07:01:37.273Z,10.49
2022-11-07T07:04:05.423Z,10.48
2022-11-07T07:06:32.233Z,10.47
2022-11-07T07:08:59.029Z,10.48
2022-11-07T07:11:27.240Z,10.51
2022-11-07T07:13:59.590Z,10.55
2022-11-07T07:16:28.865Z,10.56
2022-11-07T07:18:55.640Z,10.59
2022-11-07T07:21:22.441Z,10.60
2022-11-07T07:23:49.219Z,10.60
2022-11-07T07:26:16.961Z,10.65
2022-11-07T07:28:45.874Z,10.65
2022-11-07T07:31:22.360Z,10.64
2022-11-07T07:33:49.385Z,10.73
2022-11-07T07:36:20.780Z,10.70
2022-11-07T07:38:48.620Z,10.74
2022-11-07T07:41:15.630Z,10.72
2022-11-07T07:43:42.535Z,10.73
2022-11-07T07:46:14.790Z,10.71
2022-11-07T07:48:41.726Z,10.68
2022-11-07T07:51:08.595Z,10.68
2022-11-07T07:53:35.375Z,10.70
2022-11-07T07:56:05.649Z,10.74
2022-11-07T07:58:33.135Z,10.81
2022-11-07T08:01:00.083Z,10.80
2022-11-07T08:03:32.059Z,10.76
2022-11-07T08:06:07.319Z,10.75
2022-11-07T08:08:38.140Z,10.75
2022-11-07T08:11:07.579Z,10.76
2022-11-07T08:13:34.446Z,10.73
2022-11-07T08:16:03.288Z,10.71
2022-11-07T08:18:31.633Z,10.74
2022-11-07T08:20:58.600Z,10.81
2022-11-07T08:23:25.503Z,10.88
2022-11-07T08:25:54.081Z,10.94
2022-11-07T08:28:22.096Z,11.05
2022-11-07T08:30:59.330Z,11.03
2022-11-07T08:33:26.389Z,11.05
2022-11-07T08:35:55.879Z,10.97
2022-11-07T08:38:23.032Z,10.88
2022-11-07T08:40:49.981Z,10.81
2022-11-07T08:43:18.505Z,10.82
2022-11-07T08:45:46.105Z,10.82
2022-11-07T08:48:13.227Z,10.87
2022-11-07T08:50:40.098Z,10.93
2022-11-07T08:53:09.264Z,10.98
2022-11-07T08:55:36.953Z,10.92
2022-11-07T08:58:05.923Z,10.94
2022-11-07T09:00:33.145Z,10.93
2022-11-07T09:05:49.282Z,10.92
2022-11-07T09:08:17.812Z,10.93
2022-11-07T09:10:44.781Z,10.92
2022-11-07T09:13:11.501Z,10.94
2022-11-07T09:15:38.310Z,11.07
2022-11-07T09:18:06.256Z,11.12
2022-11-07T09:20:33.996Z,11.18
2022-11-07T09:23:00.951Z,11.21
2022-11-07T09:25:29.105Z,11.27
2022-11-07T09:27:56.172Z,11.31
2022-11-07T09:30:23.437Z,11.34
2022-11-07T09:32:50.236Z,11.40
2022-11-07T09:35:17.261Z,11.47
2022-11-07T09:37:44.041Z,11.54
2022-11-07T09:40:24.716Z,11.64
2022-11-07T09:43:02.919Z,11.70
2022-11-07T09:45:38.301Z,11.73
2022-11-07T09:48:06.308Z,11.74
2022-11-07T09:50:38.631Z,11.71
2022-11-07T09:53:12.922Z,11.68
2022-11-07T09:55:48.045Z,11.64
2022-11-07T09:58:24.927Z,11.69
2022-11-07T10:00:52.261Z,11.75
2022-11-07T10:03:19.392Z,11.82
2022-11-07T10:05:54.372Z,11.87
2022-11-07T10:08:27.990Z,11.95
2022-11-07T10:10:59.400Z,12.04
2022-11-07T10:13:56.194Z,12.26
2022-11-07T10:16:33.065Z,12.32
2022-11-07T10:19:13.508Z,12.44
2022-11-07T10:21:50.878Z,12.49
2022-11-07T10:24:31.558Z,12.68
2022-11-07T10:26:58.582Z,12.75
2022-11-07T10:29:40.333Z,12.84
2022-11-07T10:32:19.157Z,13.10
2022-11-07T10:38:18.273Z,13.56
2022-11-07T10:40:46.856Z,13.59
2022-11-07T10:43:21.952Z,13.61
2022-11-07T10:45:52.215Z,13.91
2022-11-07T10:48:19.436Z,13.98
2022-11-07T10:50:51.696Z,13.80
2022-11-07T10:53:20.452Z,13.64
2022-11-07T10:55:49.116Z,13.94
2022-11-07T10:58:20.906Z,13.95
2022-11-07T11:01:02.885Z,13.95
2022-11-07T11:03:43.314Z,14.65
2022-11-07T11:06:23.491Z,14.98
2022-11-07T11:08:52.589Z,15.32
2022-11-07T11:11:28.534Z,14.86
2022-11-07T11:14:04.231Z,14.41
2022-11-07T11:16:35.689Z,14.14
2022-11-07T11:19:03.432Z,14.40
2022-11-07T11:21:40.125Z,14.88
2022-11-07T11:24:14.386Z,14.57
2022-11-07T11:26:44.237Z,14.53
2022-11-07T11:29:18.135Z,14.51
2022-11-07T11:31:49.257Z,14.34
2022-11-07T11:34:22.330Z,14.23
2022-11-07T11:36:57.656Z,14.10
2022-11-07T11:39:28.681Z,13.95
2022-11-07T11:41:57.404Z,13.98
2022-11-07T11:44:32.230Z,13.78
2022-11-07T11:47:06.722Z,13.74
2022-11-07T11:49:39.081Z,13.66
2022-11-07T11:52:12.796Z,13.58
2022-11-07T11:54:39.703Z,13.61
2022-11-07T11:57:12.646Z,13.49
2022-11-07T11:59:59.016Z,13.32
2022-11-07T12:02:54.314Z,13.23
2022-11-07T12:05:38.847Z,13.19
2022-11-07T12:08:17.855Z,13.14
2022-11-07T12:10:52.666Z,13.07
2022-11-07T12:13:32.561Z,13.09
2022-11-07T12:16:08.722Z,13.13
2022-11-07T12:18:43.519Z,13.23
2022-11-07T12:21:23.993Z,13.24
2022-11-07T12:24:09.008Z,13.19
2022-11-07T12:26:43.770Z,13.18
2022-11-07T12:29:24.069Z,13.25
2022-11-07T12:32:02.420Z,13.33
2022-11-07T12:34:44.663Z,13.29
2022-11-07T12:37:35.486Z,13.21
2022-11-07T12:40:23.385Z,13.14
2022-11-07T12:43:02.054Z,13.03
2022-11-07T12:45:45.381Z,12.92
2022-11-07T12:48:27.929Z,12.77
2022-11-07T12:51:04.734Z,12.79
2022-11-07T12:53:41.035Z,12.73
2022-11-07T12:56:12.102Z,12.69
2022-11-07T12:58:42.561Z,12.70
2022-11-07T13:01:13.774Z,12.81
2022-11-07T13:03:54.798Z,12.95
2022-11-07T13:06:32.173Z,13.03
2022-11-07T13:09:06.452Z,13.06
2022-11-07T13:11:42.192Z,12.95
2022-11-07T13:14:26.593Z,12.96
2022-11-07T13:17:03.753Z,12.93
2022-11-07T13:19:33.148Z,12.93
2022-11-07T13:22:03.843Z,12.97
2022-11-07T13:24:31.522Z,13.03
2022-11-07T13:26:58.857Z,13.10
2022-11-07T13:29:35.234Z,13.05
2022-11-07T13:32:10.888Z,13.06
2022-11-07T13:34:44.928Z,13.08
2022-11-07T13:37:19.923Z,13.07
2022-11-07T13:39:50.828Z,12.93
2022-11-07T13:42:19.258Z,12.78
2022-11-07T13:44:53.716Z,12.63
2022-11-07T13:47:27.986Z,12.56
2022-11-07T13:49:59.178Z,12.55
2022-11-07T13:52:37.510Z,12.55
2022-11-07T13:55:11.623Z,12.55
2022-11-07T13:57:42.631Z,12.52
2022-11-07T14:00:14.739Z,12.45
2022-11-07T14:02:51.472Z,12.47
2022-11-07T14:05:19.044Z,12.44
2022-11-07T14:07:51.154Z,12.42
2022-11-07T14:10:25.465Z,12.42
2022-11-07T14:13:03.445Z,12.40
2022-11-07T14:15:30.911Z,12.38
2022-11-07T14:17:57.732Z,12.36
2022-11-07T14:20:24.842Z,12.35
2022-11-07T14:22:54.995Z,12.35
2022-11-07T14:25:26.308Z,12.35
2022-11-07T14:27:53.146Z,12.34
2022-11-07T14:30:22.292Z,12.32
2022-11-07T14:32:51.698Z,12.33
2022-11-07T14:35:21.858Z,12.31
2022-11-07T14:37:49.180Z,12.32
2022-11-07T14:40:18.039Z,12.30
2022-11-07T14:42:45.792Z,12.31
2022-11-07T14:45:15.821Z,12.33
2022-11-07T14:47:44.542Z,12.29
2022-11-07T14:50:15.622Z,12.27
2022-11-07T14:52:51.892Z,12.27
2022-11-07T14:55:29.540Z,12.27
2022-11-07T14:57:59.361Z,12.26
2022-11-07T15:00:26.143Z,12.24
2022-11-07T15:02:55.432Z,12.22
2022-11-07T15:05:25.081Z,12.20
2022-11-07T15:07:51.797Z,12.19
2022-11-07T15:10:29.695Z,12.17
2022-11-07T15:12:58.721Z,12.13
2022-11-07T15:15:29.267Z,12.15
2022-11-07T15:17:58.367Z,12.15
2022-11-07T15:20:34.077Z,12.15
2022-11-07T15:23:02.746Z,12.16
2022-11-07T15:25:36.011Z,12.16
2022-11-07T15:28:19.893Z,12.17
2022-11-07T15:30:48.794Z,12.17
2022-11-07T15:33:19.758Z,12.20
2022-11-07T15:35:48.815Z,12.21
2022-11-07T15:38:19.462Z,12.20
2022-11-07T15:40:48.164Z,12.17
2022-11-07T15:43:14.993Z,12.17
2022-11-07T15:45:43.057Z,12.17
2022-11-07T15:48:16.790Z,12.16
2022-11-07T15:50:45.230Z,12.17
2022-11-07T15:53:18.439Z,12.20
2022-11-07T15:55:45.540Z,12.18
2022-11-07T15:58:15.664Z,12.21
2022-11-07T16:00:42.917Z,12.20
2022-11-07T16:03:14.761Z,12.18
2022-11-07T16:05:42.422Z,12.18
2022-11-07T16:08:14.089Z,12.19
2022-11-07T16:10:43.694Z,12.19
2022-11-07T16:13:10.475Z,12.19
2022-11-07T16:15:40.453Z,12.20
2022-11-07T16:18:15.151Z,12.18
2022-11-07T16:20:42.644Z,12.20
2022-11-07T16:23:10.714Z,12.19
2022-11-07T16:25:40.054Z,12.20
2022-11-07T16:28:18.545Z,12.18
2022-11-07T16:30:46.973Z,12.20
2022-11-07T16:33:13.897Z,12.19
2022-11-07T16:35:41.010Z,12.20
2022-11-07T16:38:13.156Z,12.22
2022-11-07T16:40:40.707Z,12.21
2022-11-07T16:43:07.631Z,12.22
2022-11-07T16:45:35.963Z,12.23
2022-11-07T16:48:05.327Z,12.24
2022-11-07T16:50:32.536Z,12.26
2022-11-07T16:52:59.313Z,12.23
2022-11-07T16:55:26.097Z,12.22
2022-11-07T16:57:54.325Z,12.15
2022-11-07T17:00:23.396Z,12.22
2022-11-07T17:02:50.652Z,12.23
2022-11-07T17:05:19.125Z,12.23
2022-11-07T17:07:46.156Z,12.23
2022-11-07T17:10:16.279Z,12.20
2022-11-07T17:12:43.080Z,12.23
2022-11-07T17:15:10.791Z,12.25
2022-11-07T17:17:37.934Z,12.26
2022-11-07T17:20:06.008Z,12.26
2022-11-07T17:22:34.234Z,12.26
2022-11-07T17:25:01.179Z,12.28
2022-11-07T17:27:28.266Z,12.32
2022-11-07T17:29:55.212Z,12.30
2022-11-07T17:32:22.019Z,12.32
2022-11-07T17:35:04.428Z,12.36
2022-11-07T17:37:37.460Z,12.41
2022-11-07T17:40:05.766Z,12.48
2022-11-07T17:42:37.739Z,12.48
2022-11-07T17:45:05.714Z,12.51
2022-11-07T17:47:34.520Z,12.50
2022-11-07T17:50:01.420Z,12.49
2022-11-07T17:52:28.194Z,12.53
2022-11-07T17:54:56.496Z,12.58
2022-11-07T17:57:23.332Z,12.65
2022-11-07T17:59:50.294Z,12.64
2022-11-07T18:02:19.252Z,12.71
2022-11-07T18:04:46.505Z,12.74
2022-11-07T18:07:13.324Z,12.76
2022-11-07T18:09:40.798Z,12.78
2022-11-07T18:12:10.053Z,12.76
2022-11-07T18:14:37.559Z,12.77
2022-11-07T18:17:04.892Z,12.78
2022-11-07T18:19:31.742Z,12.80
2022-11-07T18:21:58.776Z,12.80
2022-11-07T18:24:25.641Z,12.81
2022-11-07T18:26:52.692Z,12.83
2022-11-07T18:29:20.911Z,12.84
2022-11-07T18:31:49.765Z,12.86
2022-11-07T18:34:17.000Z,12.86
2022-11-07T18:36:47.006Z,12.90
2022-11-07T18:39:15.530Z,12.87
2022-11-07T18:41:43.007Z,12.82
2022-11-07T18:44:10.453Z,12.87
2022-11-07T18:46:39.368Z,12.89
2022-11-07T18:49:06.852Z,12.92
2022-11-07T18:51:34.786Z,12.93
2022-11-07T18:54:03.995Z,13.00
2022-11-07T18:56:31.501Z,13.03
2022-11-07T18:58:58.803Z,13.01
2022-11-07T19:01:28.563Z,13.03
2022-11-07T19:03:58.447Z,13.04
2022-11-07T19:06:26.864Z,13.03
2022-11-07T19:08:54.009Z,13.11
2022-11-07T19:11:26.535Z,13.08
2022-11-07T19:13:53.694Z,13.07
2022-11-07T19:16:24.690Z,13.12
2022-11-07T19:18:51.577Z,13.13
2022-11-07T19:21:21.551Z,13.14
2022-11-07T19:23:50.059Z,13.15
2022-11-07T19:26:19.402Z,13.13
2022-11-07T19:28:46.659Z,13.14
2022-11-07T19:31:13.697Z,13.12
2022-11-07T19:33:41.395Z,13.10
2022-11-07T19:36:12.354Z,13.05
2022-11-07T19:38:40.800Z,13.06
2022-11-07T19:41:08.936Z,13.10
2022-11-07T19:43:36.245Z,13.10
2022-11-07T19:46:06.207Z,13.07
2022-11-07T19:48:39.349Z,13.07
2022-11-07T19:51:07.380Z,13.05
2022-11-07T19:53:34.618Z,13.04
2022-11-07T19:56:07.481Z,12.98
2022-11-07T19:58:35.616Z,12.97
2022-11-07T20:01:02.860Z,12.89
2022-11-07T20:03:29.760Z,12.82
2022-11-07T20:05:56.554Z,12.84
2022-11-07T20:08:27.341Z,12.82
2022-11-07T20:10:54.486Z,12.83
2022-11-07T20:13:22.913Z,12.79
2022-11-07T20:15:49.993Z,12.76
2022-11-07T20:18:16.904Z,12.76
2022-11-07T20:20:43.787Z,12.76
2022-11-07T20:23:10.728Z,12.69
2022-11-07T20:25:40.900Z,12.63
2022-11-07T20:28:07.890Z,12.59
2022-11-07T20:30:36.211Z,12.55
2022-11-07T20:33:03.062Z,12.53
2022-11-07T20:35:29.781Z,12.48
2022-11-07T20:37:56.687Z,12.51
2022-11-07T20:40:28.995Z,12.50
2022-11-07T20:42:56.295Z,12.49
2022-11-07T20:45:23.147Z,12.52
2022-11-07T20:47:51.594Z,12.53
2022-11-07T20:50:19.070Z,12.58
2022-11-07T20:52:46.193Z,12.60
2022-11-07T20:55:13.185Z,12.56
2022-11-07T20:57:40.003Z,12.58
2022-11-07T21:00:08.254Z,12.55
2022-11-07T21:02:35.319Z,12.52
2022-11-07T21:05:17.185Z,12.48
2022-11-07T21:07:45.044Z,12.51
2022-11-07T21:10:11.818Z,12.54
2022-11-07T21:12:38.786Z,12.58
2022-11-07T21:15:07.033Z,12.56
2022-11-07T21:17:33.879Z,12.66
2022-11-07T21:20:00.856Z,12.64
2022-11-07T21:22:29.730Z,12.64
2022-11-07T21:24:56.695Z,12.64
2022-11-07T21:27:23.595Z,12.68
2022-11-07T21:29:50.355Z,12.69
2022-11-07T21:32:17.265Z,12.73
2022-11-07T21:34:46.347Z,12.77
2022-11-07T21:37:13.165Z,12.76
2022-11-07T21:39:41.522Z,12.73
2022-11-07T21:42:08.643Z,12.72
2022-11-07T21:44:35.436Z,12.69
2022-11-07T21:47:02.226Z,12.65
2022-11-07T21:49:29.082Z,12.67
2022-11-07T21:51:57.035Z,12.63
2022-11-07T21:54:24.869Z,12.60
2022-11-07T21:56:53.226Z,12.53
2022-11-07T21:59:20.005Z,12.61
2022-11-07T22:01:48.827Z,12.62
2022-11-07T22:04:16.486Z,12.59
2022-11-07T22:06:45.762Z,12.65
2022-11-07T22:09:14.667Z,12.66
2022-11-07T22:11:41.509Z,12.72
2022-11-07T22:14:13.637Z,12.71
2022-11-07T22:16:40.526Z,12.72
2022-11-07T22:19:12.261Z,12.70
2022-11-07T22:21:40.583Z,12.73
2022-11-07T22:24:08.133Z,12.78
2022-11-07T22:26:35.459Z,12.85
2022-11-07T22:29:02.472Z,12.80
2022-11-07T22:31:31.866Z,12.80
2022-11-07T22:33:59.372Z,12.85
2022-11-07T22:36:26.333Z,12.82
2022-11-07T22:38:53.158Z,12.82
2022-11-07T22:41:22.192Z,12.87
2022-11-07T22:43:49.676Z,12.91
2022-11-07T22:46:18.818Z,12.94
2022-11-07T22:48:48.444Z,12.94
2022-11-07T22:51:17.805Z,12.91
2022-11-07T22:53:44.988Z,12.89
2022-11-07T22:56:13.305Z,12.89
2022-11-07T22:58:40.490Z,12.85
2022-11-07T23:01:14.935Z,12.90
2022-11-07T23:03:41.761Z,12.91
2022-11-07T23:06:10.666Z,12.87
2022-11-07T23:08:38.047Z,12.85
2022-11-07T23:11:43.445Z,12.78
2022-11-07T23:14:00.740Z,12.76
2022-11-07T23:16:32.832Z,12.80
2022-11-07T23:19:01.861Z,12.71
2022-11-07T23:21:30.467Z,12.74
2022-11-07T23:23:58.445Z,12.74
2022-11-07T23:26:34.061Z,12.69
2022-11-07T23:29:05.977Z,12.68
2022-11-07T23:31:36.011Z,12.68
2022-11-07T23:34:02.795Z,12.67
2022-11-07T23:36:31.036Z,12.61
2022-11-07T23:38:57.882Z,12.61
2022-11-07T23:41:24.982Z,12.65
2022-11-07T23:43:52.811Z,12.61
2022-11-07T23:46:38.229Z,12.61
2022-11-07T23:49:23.395Z,12.59
2022-11-07T23:51:51.656Z,12.58
2022-11-07T23:54:37.042Z,12.60
2022-11-07T23:57:04.039Z,12.61
2022-11-07T23:59:49.262Z,12.60
